createdAt,value
2023-01-11T00:00:26.590Z,17.80
2023-01-11T00:02:59.806Z,17.60
2023-01-11T00:05:26.368Z,19.80
2023-01-11T00:07:52.850Z,23.25
2023-01-11T00:10:19.983Z,23.00
2023-01-11T00:12:46.800Z,21.40
2023-01-11T00:15:13.625Z,20.25
2023-01-11T00:17:40.176Z,21.50
2023-01-11T00:20:06.861Z,20.75
2023-01-11T00:22:33.261Z,22.50
2023-01-11T00:24:59.656Z,21.00
2023-01-11T00:27:26.073Z,20.80
2023-01-11T00:29:52.536Z,21.00
2023-01-11T00:32:18.931Z,21.00
2023-01-11T00:34:45.336Z,20.60
2023-01-11T00:37:11.789Z,21.60
2023-01-11T00:39:38.240Z,17.40
2023-01-11T00:42:23.324Z,18.50
2023-01-11T00:45:08.253Z,19.40
2023-01-11T00:47:53.115Z,18.00
2023-01-11T00:50:19.612Z,19.00
2023-01-11T00:52:46.155Z,20.50
2023-01-11T00:55:12.571Z,21.40
2023-01-11T00:57:38.966Z,22.75
2023-01-11T01:00:05.765Z,22.00
2023-01-11T01:02:32.609Z,20.50
2023-01-11T01:04:59.935Z,19.25
2023-01-11T01:07:26.370Z,18.75
2023-01-11T01:09:52.774Z,20.00
2023-01-11T01:12:37.975Z,18.40
2023-01-11T01:15:04.564Z,19.60
2023-01-11T01:17:30.972Z,19.20
2023-01-11T01:19:57.460Z,18.00
2023-01-11T01:22:23.894Z,18.00
2023-01-11T01:24:50.287Z,18.00
2023-01-11T01:27:16.830Z,18.00
2023-01-11T01:29:43.651Z,19.20
2023-01-11T01:32:10.307Z,18.40
2023-01-11T01:34:37.616Z,20.00
2023-01-11T01:37:04.570Z,20.00
2023-01-11T01:39:31.157Z,21.00
2023-01-11T01:41:58.098Z,20.00
2023-01-11T01:44:43.290Z,19.60
2023-01-11T01:47:09.955Z,20.25
2023-01-11T01:49:36.987Z,20.00
2023-01-11T01:52:03.599Z,19.50
2023-01-11T01:54:32.556Z,16.00
2023-01-11T01:57:19.228Z,19.00
2023-01-11T01:59:51.612Z,19.00
2023-01-11T02:02:19.099Z,20.25
2023-01-11T02:04:47.028Z,18.75
2023-01-11T02:07:19.235Z,21.00
2023-01-11T02:09:57.553Z,18.00
2023-01-11T02:12:30.307Z,21.00
2023-01-11T02:14:59.501Z,21.00
2023-01-11T02:17:26.002Z,21.00
2023-01-11T02:19:52.566Z,21.00
2023-01-11T02:22:35.226Z,20.00
2023-01-11T02:25:20.281Z,21.00
2023-01-11T02:27:49.697Z,21.00
2023-01-11T02:30:45.393Z,21.50
2023-01-11T02:33:30.375Z,21.00
2023-01-11T02:35:56.771Z,20.00
2023-01-11T02:38:42.955Z,21.00
2023-01-11T02:41:12.428Z,20.00
2023-01-11T02:44:03.567Z,21.60
2023-01-11T02:46:34.149Z,21.60
2023-01-11T02:49:12.516Z,21.50
2023-01-11T02:51:47.171Z,21.40
2023-01-11T02:54:17.314Z,20.50
2023-01-11T02:56:45.597Z,22.00
2023-01-11T02:59:14.098Z,21.00
2023-01-11T03:01:47.192Z,20.25
2023-01-11T03:04:25.876Z,18.00
2023-01-11T03:07:11.701Z,17.80
2023-01-11T03:09:52.465Z,18.25
2023-01-11T03:12:37.326Z,18.40
2023-01-11T03:15:12.531Z,16.75
2023-01-11T03:17:51.942Z,15.25
2023-01-11T03:20:28.008Z,17.00
2023-01-11T03:23:12.879Z,18.00
2023-01-11T03:25:57.875Z,17.60
2023-01-11T03:28:30.277Z,17.60
2023-01-11T03:31:01.944Z,20.50
2023-01-11T03:33:34.614Z,17.40
2023-01-11T03:36:07.528Z,20.25
2023-01-11T03:38:40.267Z,20.75
2023-01-11T03:41:13.193Z,21.00
2023-01-11T03:43:41.234Z,20.00
2023-01-11T03:46:13.393Z,22.00
2023-01-11T03:48:42.684Z,18.25
2023-01-11T03:51:12.408Z,21.00
2023-01-11T03:53:40.330Z,20.20
2023-01-11T03:56:09.693Z,20.00
2023-01-11T03:58:36.463Z,20.00
2023-01-11T04:01:03.856Z,21.00
2023-01-11T04:03:30.424Z,21.00
2023-01-11T04:05:59.609Z,21.00
2023-01-11T04:08:26.116Z,19.25
2023-01-11T04:10:52.655Z,21.40
2023-01-11T04:13:19.053Z,20.00
2023-01-11T04:15:45.585Z,20.25
2023-01-11T04:18:12.069Z,20.00
2023-01-11T04:20:40.337Z,19.60
2023-01-11T04:23:08.255Z,19.00
2023-01-11T04:25:34.664Z,20.33
2023-01-11T04:28:01.072Z,19.50
2023-01-11T04:30:27.543Z,16.00
2023-01-11T04:32:53.954Z,17.25
2023-01-11T04:35:20.424Z,16.00
2023-01-11T04:37:46.848Z,18.60
2023-01-11T04:40:13.482Z,16.00
2023-01-11T04:42:39.875Z,18.00
2023-01-11T04:45:06.713Z,18.40
2023-01-11T04:47:33.102Z,19.00
2023-01-11T04:49:59.738Z,18.00
2023-01-11T04:52:26.162Z,18.25
2023-01-11T04:54:54.115Z,31.00
2023-01-11T04:57:20.872Z,46.50
2023-01-11T04:59:47.335Z,29.00
2023-01-11T05:02:14.229Z,24.00
2023-01-11T05:04:40.894Z,23.50
2023-01-11T05:07:08.284Z,23.00
2023-01-11T05:09:34.757Z,25.00
2023-01-11T05:12:01.209Z,23.75
2023-01-11T05:14:27.702Z,23.40
2023-01-11T05:16:54.198Z,23.00
2023-01-11T05:19:20.692Z,21.00
2023-01-11T05:21:47.151Z,23.25
2023-01-11T05:24:15.572Z,29.75
2023-01-11T05:26:43.865Z,36.00
2023-01-11T05:29:11.700Z,36.00
2023-01-11T05:31:39.197Z,37.00
2023-01-11T05:34:07.088Z,35.00
2023-01-11T05:36:34.235Z,27.75
2023-01-11T05:39:00.791Z,27.00
2023-01-11T05:41:27.599Z,24.00
2023-01-11T05:44:14.012Z,23.50
2023-01-11T05:46:41.486Z,21.00
2023-01-11T05:49:08.355Z,19.20
2023-01-11T05:51:35.355Z,25.00
2023-01-11T05:54:03.641Z,28.50
2023-01-11T05:56:30.151Z,25.50
2023-01-11T05:58:56.693Z,26.80
2023-01-11T06:01:23.927Z,30.00
2023-01-11T06:03:50.873Z,25.25
2023-01-11T06:06:17.970Z,23.75
2023-01-11T06:08:44.457Z,24.50
2023-01-11T06:11:10.938Z,37.50
2023-01-11T06:13:37.500Z,37.00
2023-01-11T06:16:09.520Z,37.00
2023-01-11T06:18:37.856Z,28.00
2023-01-11T06:21:04.828Z,22.25
2023-01-11T06:23:32.715Z,21.80
2023-01-11T06:26:02.652Z,19.00
2023-01-11T06:28:29.086Z,21.75
2023-01-11T06:30:56.105Z,18.80
2023-01-11T06:33:23.781Z,21.00
2023-01-11T06:35:50.625Z,21.75
2023-01-11T06:38:17.574Z,19.25
2023-01-11T06:40:44.426Z,17.00
2023-01-11T06:43:10.927Z,19.80
2023-01-11T06:45:38.496Z,17.40
2023-01-11T06:48:05.367Z,21.75
2023-01-11T06:50:31.871Z,22.00
2023-01-11T06:52:59.458Z,25.00
2023-01-11T06:55:26.859Z,26.75
2023-01-11T06:57:53.716Z,24.00
2023-01-11T07:00:20.727Z,23.60
2023-01-11T07:02:47.897Z,24.00
2023-01-11T07:05:15.706Z,25.80
2023-01-11T07:07:43.674Z,27.80
2023-01-11T07:10:12.056Z,30.00
2023-01-11T07:12:38.926Z,32.00
2023-01-11T07:15:06.608Z,33.00
2023-01-11T07:17:33.128Z,30.50
2023-01-11T07:19:59.610Z,30.00
2023-01-11T07:22:26.108Z,30.00
2023-01-11T07:24:52.609Z,30.00
2023-01-11T07:27:21.726Z,31.00
2023-01-11T07:29:48.226Z,33.00
2023-01-11T07:32:14.797Z,37.00
2023-01-11T07:34:41.330Z,40.75
2023-01-11T07:37:28.134Z,31.00
2023-01-11T07:39:55.765Z,29.40
2023-01-11T07:42:40.536Z,25.00
2023-01-11T07:45:07.308Z,26.00
2023-01-11T07:47:33.767Z,32.00
2023-01-11T07:50:00.242Z,36.75
2023-01-11T07:52:26.723Z,41.20
2023-01-11T07:54:53.179Z,44.00
2023-01-11T07:57:19.627Z,54.40
2023-01-11T07:59:46.227Z,36.75
2023-01-11T08:02:12.647Z,30.00
2023-01-11T08:04:39.140Z,30.00
2023-01-11T08:07:05.649Z,27.25
2023-01-11T08:09:32.160Z,29.00
2023-01-11T08:12:16.973Z,24.00
2023-01-11T08:14:43.705Z,22.20
2023-01-11T08:17:12.113Z,21.75
2023-01-11T08:19:38.777Z,21.50
2023-01-11T08:22:05.517Z,21.50
2023-01-11T08:24:32.370Z,23.50
2023-01-11T08:26:58.961Z,22.50
2023-01-11T08:29:25.833Z,22.00
2023-01-11T08:31:52.369Z,21.20
2023-01-11T08:34:18.959Z,23.25
2023-01-11T08:36:45.437Z,23.40
2023-01-11T08:39:12.004Z,23.00
2023-01-11T08:41:39.235Z,29.00
2023-01-11T08:44:05.963Z,29.00
2023-01-11T08:46:34.223Z,24.25
2023-01-11T08:49:01.513Z,22.00
2023-01-11T08:51:27.957Z,21.40
2023-01-11T08:53:54.632Z,20.00
2023-01-11T08:56:21.120Z,16.75
2023-01-11T08:58:47.603Z,16.60
2023-01-11T09:01:14.088Z,16.00
2023-01-11T09:03:40.539Z,17.67
2023-01-11T09:06:07.223Z,19.00
2023-01-11T09:08:33.670Z,19.80
2023-01-11T09:11:00.617Z,20.50
2023-01-11T09:13:27.526Z,27.60
2023-01-11T09:15:57.845Z,21.75
2023-01-11T09:18:26.924Z,20.00
2023-01-11T09:20:54.084Z,20.00
2023-01-11T09:23:20.578Z,22.25
2023-01-11T09:25:47.130Z,26.60
2023-01-11T09:28:13.574Z,44.50
2023-01-11T09:30:40.050Z,39.00
2023-01-11T09:33:07.036Z,27.00
2023-01-11T09:35:35.014Z,32.50
2023-01-11T09:38:02.618Z,33.00
2023-01-11T09:40:30.914Z,30.25
2023-01-11T09:43:01.369Z,33.20
2023-01-11T09:45:30.499Z,28.50
2023-01-11T09:48:11.638Z,23.00
2023-01-11T09:50:43.293Z,26.40
2023-01-11T09:53:17.258Z,16.75
2023-01-11T09:55:46.895Z,12.40
2023-01-11T09:58:32.640Z,16.00
2023-01-11T10:01:03.363Z,12.25
2023-01-11T10:03:29.894Z,15.75
2023-01-11T10:05:56.579Z,15.50
2023-01-11T10:18:25.385Z,11.00
2023-01-11T10:18:36.990Z,11.00
2023-01-11T10:20:43.837Z,10.00
2023-01-11T10:23:17.482Z,8.00
2023-01-11T10:25:51.715Z,11.00
2023-01-11T10:28:25.840Z,9.75
2023-01-11T10:30:57.737Z,8.80
2023-01-11T10:33:42.265Z,12.40
2023-01-11T10:36:29.348Z,12.00
2023-01-11T10:39:17.608Z,17.40
2023-01-11T10:42:01.464Z,13.00
2023-01-11T10:44:34.502Z,11.00
2023-01-11T10:47:02.229Z,16.00
2023-01-11T10:49:29.525Z,12.00
2023-01-11T10:51:58.930Z,11.25
2023-01-11T10:54:30.082Z,11.60
2023-01-11T10:57:16.031Z,10.40
2023-01-11T10:59:43.710Z,11.00
2023-01-11T11:02:23.398Z,11.00
2023-01-11T11:05:10.173Z,7.40
2023-01-11T11:07:40.720Z,8.00
2023-01-11T11:10:14.544Z,7.25
2023-01-11T11:12:46.261Z,6.40
2023-01-11T11:15:27.088Z,8.00
2023-01-11T11:17:54.185Z,8.00
2023-01-11T11:20:25.194Z,7.00
2023-01-11T11:22:53.144Z,6.00
2023-01-11T11:25:41.448Z,5.00
2023-01-11T11:28:09.045Z,8.00
2023-01-11T11:30:42.276Z,5.00
2023-01-11T11:33:17.824Z,8.50
2023-01-11T11:35:46.440Z,4.75
2023-01-11T11:38:23.359Z,6.00
2023-01-11T11:41:08.475Z,5.75
2023-01-11T11:43:38.465Z,11.00
2023-01-11T11:46:09.730Z,5.80
2023-01-11T11:48:36.321Z,6.00
2023-01-11T11:51:04.335Z,6.60
2023-01-11T11:53:55.709Z,9.50
2023-01-11T11:56:27.766Z,6.75
2023-01-11T11:58:54.865Z,10.00
2023-01-11T12:01:35.401Z,7.00
2023-01-11T12:04:14.110Z,7.60
2023-01-11T12:06:41.576Z,8.00
2023-01-11T12:09:27.512Z,12.80
2023-01-11T12:11:54.444Z,12.80
2023-01-11T12:14:35.285Z,9.00
2023-01-11T12:17:25.166Z,8.00
2023-01-11T12:19:51.739Z,9.25
2023-01-11T12:22:20.106Z,9.50
2023-01-11T12:24:47.354Z,8.00
2023-01-11T12:27:16.677Z,5.50
2023-01-11T12:29:44.870Z,3.00
2023-01-11T12:32:20.079Z,6.40
2023-01-11T12:34:46.581Z,6.00
2023-01-11T12:37:31.232Z,8.75
2023-01-11T12:40:03.797Z,6.00
2023-01-11T12:42:51.852Z,7.00
2023-01-11T12:45:26.878Z,7.40
2023-01-11T12:47:56.229Z,5.75
2023-01-11T12:50:29.063Z,5.50
2023-01-11T12:53:14.088Z,7.40
2023-01-11T12:55:46.234Z,5.80
2023-01-11T12:58:35.989Z,4.00
2023-01-11T13:01:12.870Z,3.80
2023-01-11T13:03:39.500Z,10.00
2023-01-11T13:06:09.151Z,10.00
2023-01-11T13:09:01.844Z,6.50
2023-01-11T13:11:37.279Z,6.00
2023-01-11T13:14:22.505Z,4.00
2023-01-11T13:17:07.647Z,6.00
2023-01-11T13:19:57.123Z,3.50
2023-01-11T13:22:28.193Z,5.00
2023-01-11T13:24:55.479Z,4.60
2023-01-11T13:27:23.247Z,5.00
2023-01-11T13:29:55.227Z,5.50
2023-01-11T13:32:24.332Z,5.00
2023-01-11T13:34:59.999Z,7.60
2023-01-11T13:37:26.479Z,6.00
2023-01-11T13:39:52.937Z,6.00
2023-01-11T13:42:25.139Z,6.00
2023-01-11T13:44:55.399Z,6.00
2023-01-11T13:47:34.222Z,7.00
2023-01-11T13:50:19.243Z,7.00
2023-01-11T13:52:54.209Z,7.50
2023-01-11T13:55:28.315Z,10.75
2023-01-11T13:58:03.845Z,7.50
2023-01-11T14:00:53.355Z,5.50
2023-01-11T14:03:31.980Z,5.50
2023-01-11T14:06:01.294Z,5.60
2023-01-11T14:08:35.678Z,7.00
2023-01-11T14:11:12.811Z,6.50
2023-01-11T14:14:18.226Z,6.40
2023-01-11T14:16:47.935Z,7.40
2023-01-11T14:19:32.944Z,6.80
2023-01-11T14:22:02.452Z,5.00
2023-01-11T14:24:31.005Z,6.00
2023-01-11T14:27:06.917Z,6.00
2023-01-11T14:29:49.691Z,5.40
2023-01-11T14:32:25.439Z,6.00
2023-01-11T14:34:58.777Z,6.00
2023-01-11T14:37:31.422Z,4.20
2023-01-11T14:40:16.525Z,5.80
2023-01-11T14:42:46.024Z,5.00
2023-01-11T14:45:21.279Z,4.00
2023-01-11T14:47:50.481Z,5.50
2023-01-11T14:50:19.728Z,7.00
2023-01-11T14:52:47.896Z,6.00
2023-01-11T14:55:16.687Z,7.00
2023-01-11T14:58:09.501Z,6.20
2023-01-11T15:00:35.904Z,7.00
2023-01-11T15:03:05.167Z,6.50
2023-01-11T15:05:31.653Z,6.40
2023-01-11T15:08:13.282Z,5.33
2023-01-11T15:10:45.126Z,7.00
2023-01-11T15:13:14.987Z,6.50
2023-01-11T15:16:00.201Z,6.20
2023-01-11T15:18:27.580Z,8.60
2023-01-11T15:20:58.798Z,9.60
2023-01-11T15:23:26.036Z,7.00
2023-01-11T15:26:00.124Z,7.75
2023-01-11T15:28:41.873Z,6.50
2023-01-11T15:31:27.754Z,6.00
2023-01-11T15:33:54.562Z,7.25
2023-01-11T15:36:24.551Z,7.50
2023-01-11T15:39:03.312Z,7.25
2023-01-11T15:41:57.560Z,7.00
2023-01-11T15:44:35.071Z,8.00
2023-01-11T15:47:19.991Z,6.00
2023-01-11T15:49:49.242Z,5.00
2023-01-11T15:52:15.676Z,7.00
2023-01-11T15:54:54.041Z,12.00
2023-01-11T15:57:32.531Z,11.00
2023-01-11T15:59:59.088Z,13.00
2023-01-11T16:02:40.688Z,12.75
2023-01-11T16:05:13.283Z,16.00
2023-01-11T16:07:42.480Z,14.50
2023-01-11T16:10:08.991Z,15.80
2023-01-11T16:12:38.601Z,17.25
2023-01-11T16:15:15.578Z,17.40
2023-01-11T16:17:42.669Z,21.20
2023-01-11T16:20:13.235Z,18.00
2023-01-11T16:22:39.705Z,19.00
2023-01-11T16:25:07.985Z,21.00
2023-01-11T16:27:34.955Z,21.25
2023-01-11T16:30:02.164Z,22.40
2023-01-11T16:32:32.907Z,22.60
2023-01-11T16:35:03.296Z,26.00
2023-01-11T16:37:29.737Z,29.00
2023-01-11T16:40:03.216Z,27.00
2023-01-11T16:42:32.329Z,28.25
2023-01-11T16:45:00.543Z,35.50
2023-01-11T16:47:27.009Z,35.00
2023-01-11T16:50:12.238Z,65.20
2023-01-11T16:52:41.316Z,34.00
2023-01-11T16:55:22.716Z,37.20
2023-01-11T16:57:54.146Z,38.60
2023-01-11T17:00:23.213Z,43.50
2023-01-11T17:03:00.173Z,37.40
2023-01-11T17:05:26.956Z,35.00
2023-01-11T17:07:53.431Z,32.80
2023-01-11T17:10:22.961Z,32.00
2023-01-11T17:13:31.363Z,31.00
2023-01-11T17:16:18.091Z,39.00
2023-01-11T17:18:44.705Z,37.80
2023-01-11T17:21:24.959Z,32.50
2023-01-11T17:23:53.015Z,29.50
2023-01-11T17:26:24.630Z,38.25
2023-01-11T17:28:52.751Z,31.00
2023-01-11T17:31:24.262Z,30.25
2023-01-11T17:34:20.579Z,35.00
2023-01-11T17:36:47.590Z,30.00
2023-01-11T17:39:18.565Z,32.20
2023-01-11T17:42:03.742Z,36.50
2023-01-11T17:44:48.855Z,36.75
2023-01-11T17:47:15.403Z,40.80
2023-01-11T17:49:41.854Z,33.00
2023-01-11T17:52:16.701Z,29.00
2023-01-11T17:54:43.274Z,28.00
2023-01-11T17:57:09.740Z,22.75
2023-01-11T17:59:36.400Z,26.75
2023-01-11T18:02:29.128Z,20.00
2023-01-11T18:04:59.861Z,21.40
2023-01-11T18:07:26.491Z,19.00
2023-01-11T18:09:58.132Z,11.75
2023-01-11T18:12:32.744Z,16.25
2023-01-11T18:15:00.925Z,18.40
2023-01-11T18:17:35.390Z,13.75
2023-01-11T18:20:22.117Z,11.00
2023-01-11T18:22:59.069Z,11.00
2023-01-11T18:25:26.766Z,10.00
2023-01-11T18:28:14.137Z,14.80
2023-01-11T18:30:53.716Z,12.00
2023-01-11T18:33:23.119Z,17.20
2023-01-11T18:35:51.409Z,20.00
2023-01-11T18:38:21.573Z,20.00
2023-01-11T18:40:49.347Z,21.25
2023-01-11T18:43:17.742Z,25.25
2023-01-11T18:45:44.932Z,19.25
2023-01-11T18:48:12.150Z,19.20
2023-01-11T18:50:39.340Z,19.50
2023-01-11T18:53:05.757Z,22.50
2023-01-11T18:55:32.394Z,12.25
2023-01-11T18:57:58.848Z,16.00
2023-01-11T19:00:25.352Z,20.00
2023-01-11T19:05:23.228Z,12.60
2023-01-11T19:07:50.074Z,13.00
2023-01-11T19:10:17.743Z,16.60
2023-01-11T19:12:44.781Z,12.00
2023-01-11T19:15:12.083Z,13.00
2023-01-11T19:17:38.659Z,14.60
2023-01-11T19:20:05.520Z,23.20
2023-01-11T19:22:32.172Z,17.00
2023-01-11T19:24:58.653Z,12.60
2023-01-11T19:27:25.188Z,9.60
2023-01-11T19:29:52.889Z,20.00
2023-01-11T19:32:23.662Z,18.60
2023-01-11T19:34:51.020Z,21.00
2023-01-11T19:37:17.897Z,30.00
2023-01-11T19:39:44.371Z,18.80
2023-01-11T19:42:10.851Z,27.00
2023-01-11T19:44:40.805Z,24.00
2023-01-11T19:47:13.160Z,22.20
2023-01-11T19:49:40.578Z,22.75
2023-01-11T19:52:13.465Z,23.60
2023-01-11T19:54:42.108Z,27.20
2023-01-11T19:57:10.025Z,19.60
2023-01-11T19:59:36.496Z,23.00
2023-01-11T20:02:03.010Z,19.00
2023-01-11T20:04:29.542Z,28.00
2023-01-11T20:06:56.622Z,18.00
2023-01-11T20:09:23.123Z,24.00
2023-01-11T20:11:49.743Z,25.75
2023-01-11T20:14:16.896Z,29.00
2023-01-11T20:16:43.613Z,20.00
2023-01-11T20:19:10.447Z,17.00
2023-01-11T20:21:36.987Z,18.60
2023-01-11T20:24:03.779Z,19.00
2023-01-11T20:26:31.479Z,15.80
2023-01-11T20:28:58.399Z,16.50
2023-01-11T20:31:28.534Z,18.60
2023-01-11T20:33:55.654Z,16.00
2023-01-11T20:36:22.863Z,12.00
2023-01-11T20:38:49.593Z,12.00
2023-01-11T20:41:36.135Z,14.25
2023-01-11T20:44:02.877Z,10.00
2023-01-11T20:46:29.434Z,15.50
2023-01-11T20:48:55.992Z,15.00
2023-01-11T20:51:22.620Z,11.00
2023-01-11T20:53:49.078Z,9.40
2023-01-11T20:56:15.619Z,7.00
2023-01-11T20:58:42.085Z,7.00
2023-01-11T21:01:10.518Z,8.00
2023-01-11T21:03:37.042Z,9.00
2023-01-11T21:06:04.505Z,8.00
2023-01-11T21:08:30.958Z,8.60
2023-01-11T21:10:57.655Z,11.40
2023-01-11T21:13:24.163Z,7.25
2023-01-11T21:15:50.657Z,8.00
2023-01-11T21:18:17.106Z,11.00
2023-01-11T21:20:47.394Z,7.60
2023-01-11T21:23:15.350Z,5.60
2023-01-11T21:25:41.766Z,4.60
2023-01-11T21:28:08.671Z,5.00
2023-01-11T21:30:35.155Z,6.00
2023-01-11T21:33:01.639Z,5.20
2023-01-11T21:35:28.102Z,6.00
2023-01-11T21:37:54.536Z,6.00
2023-01-11T21:40:21.023Z,6.00
2023-01-11T21:42:47.576Z,5.00
2023-01-11T21:45:14.082Z,5.00
2023-01-11T21:47:43.658Z,7.00
2023-01-11T21:50:10.599Z,8.00
2023-01-11T21:52:37.083Z,6.00
2023-01-11T21:55:03.627Z,7.00
2023-01-11T21:57:30.112Z,6.00
2023-01-11T21:59:56.550Z,8.00
2023-01-11T22:02:23.028Z,6.25
2023-01-11T22:04:53.146Z,5.00
2023-01-11T22:07:19.561Z,6.00
2023-01-11T22:10:03.474Z,5.00
2023-01-11T22:12:30.868Z,8.50
2023-01-11T22:14:57.293Z,6.60
2023-01-11T22:17:23.754Z,7.00
2023-01-11T22:19:50.292Z,5.00
2023-01-11T22:22:16.785Z,5.20
2023-01-11T22:24:43.325Z,5.00
2023-01-11T22:27:09.823Z,5.60
2023-01-11T22:29:37.460Z,4.00
2023-01-11T22:32:04.451Z,5.75
2023-01-11T22:34:31.150Z,3.50
2023-01-11T22:36:57.907Z,4.60
2023-01-11T22:39:24.866Z,4.00
2023-01-11T22:41:51.579Z,4.00
2023-01-11T22:44:18.055Z,4.75
2023-01-11T22:46:44.997Z,4.80
2023-01-11T22:49:11.741Z,4.00
2023-01-11T22:51:39.395Z,4.00
2023-01-11T22:54:05.920Z,5.00
2023-01-11T22:56:32.488Z,4.00
2023-01-11T22:58:59.490Z,4.00
2023-01-11T23:01:27.495Z,5.00
2023-01-11T23:03:55.313Z,3.00
2023-01-11T23:06:26.345Z,4.00
2023-01-11T23:08:53.297Z,5.00
2023-01-11T23:11:39.787Z,4.00
2023-01-11T23:14:08.482Z,4.00
2023-01-11T23:16:35.491Z,4.25
2023-01-11T23:19:02.512Z,3.00
2023-01-11T23:21:29.194Z,4.00
2023-01-11T23:23:55.667Z,4.00
2023-01-11T23:26:22.259Z,4.00
2023-01-11T23:28:49.671Z,3.00
2023-01-11T23:31:17.935Z,4.00
2023-01-11T23:33:45.568Z,3.00
2023-01-11T23:36:12.497Z,3.50
2023-01-11T23:38:39.106Z,4.00
2023-01-11T23:41:24.916Z,4.00
2023-01-11T23:43:51.719Z,3.00
2023-01-11T23:46:37.164Z,4.00
2023-01-11T23:49:04.622Z,6.00
2023-01-11T23:51:31.294Z,3.50
2023-01-11T23:53:57.777Z,5.00
2023-01-11T23:56:24.253Z,4.00
2023-01-11T23:58:50.802Z,4.00
